Hobart, OK

7:50 AM CST on February 27, 2015 (GMT -0600)
Hobart OK | Change Station
CLOSE
Current Station
Personal Weather Station
Location: Hobart, OK
Elevation: 1572 ft
Nearby Weather Stations
Active Advisory: Winter Weather Advisory

Elev 1572 ft 35.03 °N, 99.10 °W | Updated 9 minutes ago

Overcast
Overcast
18.3 °F
Feels Like 11 °F
N
5.3
Wind Variable Wind from NE

Today
High -- | Low -- °F
--% Chance of Precip.
Yesterday
High -- | Low -- °F
Precip. -- in
7:08 AM 6:30 PM
Waxing Gibbous, 69% visible
Pressure 30.52 in
Visibility 10.0 miles
Clouds Overcast 8500 ft
Windchill 11 °F
Dew Point 1 °F
Humidity 45%
Rainfall 0.00 in
Snow Depth Not available.
UV 0 out of 12
Pollen 1.30 out of 12
Air Quality Not available.
Flu Activity Not available.
METAR KHBR 271253Z AUTO 06013KT 10SM OVC085 M07/M16 A3046 RMK AO2 SLP333 T10721161 $

More Conditions Fewer Conditions

Pressure 30.52 in
Visibility 10.0 miles
Clouds Overcast 8500 ft
Windchill 11 °F
Dew Point 1 °F
Humidity 45%
Rainfall 0.00 in
Snow Depth Not available.
UV 0 out of 12
Pollen 1.30 out of 12
Air Quality Not available.
Flu Activity Not available.
METAR KHBR 271253Z AUTO 06013KT 10SM OVC085 M07/M16 A3046 RMK AO2 SLP333 T10721161 $

More Conditions Fewer Conditions

10-Day Weather Forecast

Almanac

Astronomy

Feb. 27, 2015 Rise Set
Actual Time
Civil Twilight
Nautical Twilight
Astronomical Twilight
Moon
Length of Visible Light
Length of Day
Tomorrow will be .
, % of the Moon is Illuminated

Today's Extremes

State Highs State Lows

Community

WunderPhotos

Upload Photos

1,800,672 photos uploaded!

WunderBlogs® & News

Nearby

Air Quality

  Air Quality AQ Index Pollutant
Not available.

Snow Depth

Station Depth Elevation

Earthquake Activity

City Distance Mag. Time & Date
Minimum magnitude displayed is 2.5.

Coastal Water Temperatures

Place Temperature

Nearby Weather Stations

Winter Weather Advisory
Statement as of 3:20 AM CST on February 27, 2015

... Winter Weather Advisory remains in effect from 6 am this
morning to 6 PM CST this evening...

* timing: light snow will move across western Oklahoma and
adjacent parts of North Texas through the day.

* Main impact: 1 to 3 inches of snow.

* Other impacts: slick and hazardous roads are expected.

Precautionary/preparedness actions...

Be careful if you have to travel. Even small amounts of ice and
snow can make roads and sidewalks slick and dangerous.